sensor_id;sensor_type;location;lat;lon;timestamp;P1;durP1;ratioP1;P2;durP2;ratioP2
8737;SDS011;4405;49.272;8.590;2024-01-16T00:00:01;6.97;;;4.90;;
8737;SDS011;4405;49.272;8.590;2024-01-16T00:02:29;6.43;;;4.60;;
8737;SDS011;4405;49.272;8.590;2024-01-16T00:04:55;7.43;;;4.50;;
8737;SDS011;4405;49.272;8.590;2024-01-16T00:07:22;7.40;;;4.70;;
8737;SDS011;4405;49.272;8.590;2024-01-16T00:09:48;6.57;;;4.47;;
8737;SDS011;4405;49.272;8.590;2024-01-16T00:12:17;8.80;;;5.20;;
8737;SDS011;4405;49.272;8.590;2024-01-16T00:14:43;7.57;;;4.93;;
8737;SDS011;4405;49.272;8.590;2024-01-16T00:17:10;6.93;;;4.70;;
8737;SDS011;4405;49.272;8.590;2024-01-16T00:19:37;6.20;;;4.57;;
8737;SDS011;4405;49.272;8.590;2024-01-16T00:22:04;7.97;;;5.00;;
8737;SDS011;4405;49.272;8.590;2024-01-16T00:24:30;5.37;;;4.53;;
8737;SDS011;4405;49.272;8.590;2024-01-16T00:26:56;6.40;;;5.17;;
8737;SDS011;4405;49.272;8.590;2024-01-16T00:29:23;5.60;;;4.70;;
8737;SDS011;4405;49.272;8.590;2024-01-16T00:31:50;7.07;;;5.03;;
8737;SDS011;4405;49.272;8.590;2024-01-16T00:34:16;7.40;;;4.93;;
8737;SDS011;4405;49.272;8.590;2024-01-16T00:36:43;7.40;;;4.97;;
8737;SDS011;4405;49.272;8.590;2024-01-16T00:39:10;7.80;;;4.73;;
8737;SDS011;4405;49.272;8.590;2024-01-16T00:41:36;8.37;;;5.30;;
8737;SDS011;4405;49.272;8.590;2024-01-16T00:44:02;11.20;;;4.83;;
8737;SDS011;4405;49.272;8.590;2024-01-16T00:46:28;5.43;;;4.10;;
8737;SDS011;4405;49.272;8.590;2024-01-16T00:48:55;5.90;;;4.40;;
8737;SDS011;4405;49.272;8.590;2024-01-16T00:51:21;7.43;;;5.00;;
8737;SDS011;4405;49.272;8.590;2024-01-16T00:53:49;5.57;;;4.40;;
8737;SDS011;4405;49.272;8.590;2024-01-16T00:56:15;7.10;;;4.57;;
8737;SDS011;4405;49.272;8.590;2024-01-16T00:58:41;7.63;;;4.83;;
8737;SDS011;4405;49.272;8.590;2024-01-16T01:01:07;7.00;;;4.57;;
8737;SDS011;4405;49.272;8.590;2024-01-16T01:03:33;6.60;;;4.73;;
8737;SDS011;4405;49.272;8.590;2024-01-16T01:06:00;9.63;;;4.97;;
8737;SDS011;4405;49.272;8.590;2024-01-16T01:08:26;7.07;;;4.50;;
8737;SDS011;4405;49.272;8.590;2024-01-16T01:10:54;9.07;;;5.00;;
8737;SDS011;4405;49.272;8.590;2024-01-16T01:13:20;10.60;;;5.23;;
8737;SDS011;4405;49.272;8.590;2024-01-16T01:15:46;7.50;;;4.83;;
8737;SDS011;4405;49.272;8.590;2024-01-16T01:18:12;7.93;;;5.30;;
8737;SDS011;4405;49.272;8.590;2024-01-16T01:20:39;6.67;;;5.07;;
8737;SDS011;4405;49.272;8.590;2024-01-16T01:23:05;6.40;;;4.50;;
8737;SDS011;4405;49.272;8.590;2024-01-16T01:25:31;7.70;;;4.80;;
8737;SDS011;4405;49.272;8.590;2024-01-16T01:27:59;7.50;;;4.80;;
8737;SDS011;4405;49.272;8.590;2024-01-16T01:30:25;6.87;;;4.80;;
8737;SDS011;4405;49.272;8.590;2024-01-16T01:32:52;5.90;;;4.50;;
8737;SDS011;4405;49.272;8.590;2024-01-16T01:35:18;6.87;;;5.07;;
8737;SDS011;4405;49.272;8.590;2024-01-16T01:37:45;9.40;;;4.93;;
8737;SDS011;4405;49.272;8.590;2024-01-16T01:40:11;7.77;;;5.30;;
8737;SDS011;4405;49.272;8.590;2024-01-16T01:42:37;8.60;;;4.77;;
8737;SDS011;4405;49.272;8.590;2024-01-16T01:45:05;5.47;;;4.57;;
8737;SDS011;4405;49.272;8.590;2024-01-16T01:47:32;6.93;;;4.50;;
8737;SDS011;4405;49.272;8.590;2024-01-16T01:49:58;6.10;;;5.10;;
8737;SDS011;4405;49.272;8.590;2024-01-16T01:52:24;8.67;;;4.90;;
8737;SDS011;4405;49.272;8.590;2024-01-16T01:54:50;7.63;;;5.17;;
8737;SDS011;4405;49.272;8.590;2024-01-16T01:57:17;7.33;;;5.00;;
8737;SDS011;4405;49.272;8.590;2024-01-16T01:59:44;6.60;;;4.80;;
8737;SDS011;4405;49.272;8.590;2024-01-16T02:02:11;10.43;;;5.13;;
8737;SDS011;4405;49.272;8.590;2024-01-16T02:04:38;10.43;;;5.43;;
8737;SDS011;4405;49.272;8.590;2024-01-16T02:07:04;7.13;;;5.10;;
8737;SDS011;4405;49.272;8.590;2024-01-16T02:09:31;8.30;;;4.57;;
8737;SDS011;4405;49.272;8.590;2024-01-16T02:11:57;7.13;;;4.73;;
8737;SDS011;4405;49.272;8.590;2024-01-16T02:14:23;7.67;;;5.10;;
8737;SDS011;4405;49.272;8.590;2024-01-16T02:16:49;7.43;;;5.13;;
8737;SDS011;4405;49.272;8.590;2024-01-16T02:19:17;6.30;;;5.13;;
8737;SDS011;4405;49.272;8.590;2024-01-16T02:21:44;9.30;;;5.43;;
8737;SDS011;4405;49.272;8.590;2024-01-16T02:24:13;8.03;;;5.43;;
8737;SDS011;4405;49.272;8.590;2024-01-16T02:26:41;6.50;;;4.47;;
8737;SDS011;4405;49.272;8.590;2024-01-16T02:29:08;11.33;;;5.57;;
8737;SDS011;4405;49.272;8.590;2024-01-16T02:31:34;7.33;;;5.10;;
8737;SDS011;4405;49.272;8.590;2024-01-16T02:34:01;9.97;;;4.90;;
8737;SDS011;4405;49.272;8.590;2024-01-16T02:36:29;7.27;;;4.63;;
8737;SDS011;4405;49.272;8.590;2024-01-16T02:38:55;9.67;;;5.00;;
8737;SDS011;4405;49.272;8.590;2024-01-16T02:41:23;8.07;;;4.90;;
8737;SDS011;4405;49.272;8.590;2024-01-16T02:43:49;7.13;;;5.00;;
8737;SDS011;4405;49.272;8.590;2024-01-16T02:46:15;8.53;;;4.83;;
8737;SDS011;4405;49.272;8.590;2024-01-16T02:48:42;7.83;;;5.30;;
8737;SDS011;4405;49.272;8.590;2024-01-16T02:51:08;7.30;;;5.27;;
8737;SDS011;4405;49.272;8.590;2024-01-16T02:53:35;6.47;;;5.10;;
8737;SDS011;4405;49.272;8.590;2024-01-16T02:56:01;5.97;;;4.50;;
8737;SDS011;4405;49.272;8.590;2024-01-16T02:58:29;8.87;;;4.90;;
8737;SDS011;4405;49.272;8.590;2024-01-16T03:00:55;9.67;;;5.10;;
8737;SDS011;4405;49.272;8.590;2024-01-16T03:03:22;7.00;;;4.93;;
8737;SDS011;4405;49.272;8.590;2024-01-16T03:05:48;8.13;;;5.00;;
8737;SDS011;4405;49.272;8.590;2024-01-16T03:08:15;9.97;;;4.97;;
8737;SDS011;4405;49.272;8.590;2024-01-16T03:10:41;6.47;;;5.00;;
8737;SDS011;4405;49.272;8.590;2024-01-16T03:13:07;6.83;;;4.87;;
8737;SDS011;4405;49.272;8.590;2024-01-16T03:15:35;5.27;;;4.60;;
8737;SDS011;4405;49.272;8.590;2024-01-16T03:18:01;8.40;;;5.23;;
8737;SDS011;4405;49.272;8.590;2024-01-16T03:20:27;8.10;;;5.20;;
8737;SDS011;4405;49.272;8.590;2024-01-16T03:22:54;8.30;;;5.03;;
8737;SDS011;4405;49.272;8.590;2024-01-16T03:25:20;9.03;;;4.70;;
8737;SDS011;4405;49.272;8.590;2024-01-16T03:27:47;7.40;;;4.97;;
8737;SDS011;4405;49.272;8.590;2024-01-16T03:30:14;5.20;;;4.70;;
8737;SDS011;4405;49.272;8.590;2024-01-16T03:32:41;7.37;;;4.53;;
8737;SDS011;4405;49.272;8.590;2024-01-16T03:35:07;5.97;;;4.67;;
8737;SDS011;4405;49.272;8.590;2024-01-16T03:37:34;7.23;;;5.57;;
8737;SDS011;4405;49.272;8.590;2024-01-16T03:40:00;9.03;;;5.50;;
8737;SDS011;4405;49.272;8.590;2024-01-16T03:42:27;7.03;;;4.43;;
8737;SDS011;4405;49.272;8.590;2024-01-16T03:44:53;7.80;;;5.13;;
8737;SDS011;4405;49.272;8.590;2024-01-16T03:47:19;10.27;;;5.10;;
8737;SDS011;4405;49.272;8.590;2024-01-16T03:49:47;7.83;;;4.97;;
8737;SDS011;4405;49.272;8.590;2024-01-16T03:52:13;6.33;;;4.77;;
8737;SDS011;4405;49.272;8.590;2024-01-16T03:54:39;6.67;;;4.77;;
8737;SDS011;4405;49.272;8.590;2024-01-16T03:57:06;8.17;;;5.33;;
8737;SDS011;4405;49.272;8.590;2024-01-16T03:59:32;8.47;;;5.13;;
8737;SDS011;4405;49.272;8.590;2024-01-16T04:01:58;5.73;;;4.60;;
8737;SDS011;4405;49.272;8.590;2024-01-16T04:04:26;7.30;;;4.73;;
8737;SDS011;4405;49.272;8.590;2024-01-16T04:06:54;9.77;;;5.40;;
8737;SDS011;4405;49.272;8.590;2024-01-16T04:09:20;7.13;;;5.47;;
8737;SDS011;4405;49.272;8.590;2024-01-16T04:11:49;9.67;;;4.87;;
8737;SDS011;4405;49.272;8.590;2024-01-16T04:14:15;6.93;;;5.40;;
8737;SDS011;4405;49.272;8.590;2024-01-16T04:16:41;8.27;;;4.97;;
8737;SDS011;4405;49.272;8.590;2024-01-16T04:19:08;7.33;;;4.77;;
8737;SDS011;4405;49.272;8.590;2024-01-16T04:21:35;7.90;;;5.10;;
8737;SDS011;4405;49.272;8.590;2024-01-16T04:24:03;10.07;;;5.03;;
8737;SDS011;4405;49.272;8.590;2024-01-16T04:26:29;7.70;;;4.60;;
8737;SDS011;4405;49.272;8.590;2024-01-16T04:28:56;6.60;;;4.73;;
8737;SDS011;4405;49.272;8.590;2024-01-16T04:31:22;8.20;;;5.03;;
8737;SDS011;4405;49.272;8.590;2024-01-16T04:33:48;9.47;;;5.40;;
8737;SDS011;4405;49.272;8.590;2024-01-16T04:36:14;6.87;;;5.10;;
8737;SDS011;4405;49.272;8.590;2024-01-16T04:38:41;7.13;;;4.77;;
8737;SDS011;4405;49.272;8.590;2024-01-16T04:41:08;7.77;;;4.93;;
8737;SDS011;4405;49.272;8.590;2024-01-16T04:43:34;6.37;;;4.17;;
8737;SDS011;4405;49.272;8.590;2024-01-16T04:46:01;6.70;;;5.00;;
8737;SDS011;4405;49.272;8.590;2024-01-16T04:48:28;9.07;;;5.23;;
8737;SDS011;4405;49.272;8.590;2024-01-16T04:50:54;9.17;;;4.90;;
8737;SDS011;4405;49.272;8.590;2024-01-16T04:53:20;6.90;;;4.80;;
8737;SDS011;4405;49.272;8.590;2024-01-16T04:55:46;7.93;;;4.47;;
8737;SDS011;4405;49.272;8.590;2024-01-16T04:58:14;9.20;;;5.93;;
8737;SDS011;4405;49.272;8.590;2024-01-16T05:00:40;7.83;;;5.17;;
8737;SDS011;4405;49.272;8.590;2024-01-16T05:03:06;5.57;;;4.73;;
8737;SDS011;4405;49.272;8.590;2024-01-16T05:05:32;7.83;;;4.90;;
8737;SDS011;4405;49.272;8.590;2024-01-16T05:08:00;8.33;;;5.70;;
8737;SDS011;4405;49.272;8.590;2024-01-16T05:10:27;6.70;;;4.50;;
8737;SDS011;4405;49.272;8.590;2024-01-16T05:12:53;5.17;;;4.33;;
8737;SDS011;4405;49.272;8.590;2024-01-16T05:15:20;8.90;;;4.90;;
8737;SDS011;4405;49.272;8.590;2024-01-16T05:17:46;8.83;;;4.70;;
8737;SDS011;4405;49.272;8.590;2024-01-16T05:20:12;8.90;;;5.00;;
8737;SDS011;4405;49.272;8.590;2024-01-16T05:22:38;5.53;;;4.60;;
8737;SDS011;4405;49.272;8.590;2024-01-16T05:25:05;7.17;;;4.60;;
8737;SDS011;4405;49.272;8.590;2024-01-16T05:27:32;7.67;;;5.33;;
8737;SDS011;4405;49.272;8.590;2024-01-16T05:29:58;7.03;;;4.87;;
8737;SDS011;4405;49.272;8.590;2024-01-16T05:32:26;8.07;;;5.17;;
8737;SDS011;4405;49.272;8.590;2024-01-16T05:34:52;7.67;;;4.97;;
8737;SDS011;4405;49.272;8.590;2024-01-16T05:37:19;7.10;;;4.83;;
8737;SDS011;4405;49.272;8.590;2024-01-16T05:39:45;8.47;;;5.13;;
8737;SDS011;4405;49.272;8.590;2024-01-16T05:42:11;7.60;;;5.30;;
8737;SDS011;4405;49.272;8.590;2024-01-16T05:44:38;9.53;;;6.03;;
8737;SDS011;4405;49.272;8.590;2024-01-16T05:47:04;8.70;;;5.20;;
8737;SDS011;4405;49.272;8.590;2024-01-16T05:49:32;8.17;;;5.30;;
8737;SDS011;4405;49.272;8.590;2024-01-16T05:51:58;7.07;;;5.10;;
8737;SDS011;4405;49.272;8.590;2024-01-16T05:54:24;11.27;;;5.50;;
8737;SDS011;4405;49.272;8.590;2024-01-16T05:56:51;13.30;;;5.87;;
8737;SDS011;4405;49.272;8.590;2024-01-16T05:59:17;6.67;;;5.53;;
8737;SDS011;4405;49.272;8.590;2024-01-16T06:01:43;7.20;;;5.57;;
8737;SDS011;4405;49.272;8.590;2024-01-16T06:04:09;10.73;;;6.30;;
8737;SDS011;4405;49.272;8.590;2024-01-16T06:06:37;11.23;;;6.17;;
8737;SDS011;4405;49.272;8.590;2024-01-16T06:09:04;8.57;;;5.80;;
8737;SDS011;4405;49.272;8.590;2024-01-16T06:11:31;8.40;;;5.87;;
8737;SDS011;4405;49.272;8.590;2024-01-16T06:13:57;11.53;;;6.27;;
8737;SDS011;4405;49.272;8.590;2024-01-16T06:16:24;9.10;;;5.80;;
8737;SDS011;4405;49.272;8.590;2024-01-16T06:18:50;9.33;;;5.40;;
8737;SDS011;4405;49.272;8.590;2024-01-16T06:21:16;8.93;;;5.40;;
8737;SDS011;4405;49.272;8.590;2024-01-16T06:23:44;7.10;;;5.30;;
8737;SDS011;4405;49.272;8.590;2024-01-16T06:26:10;9.20;;;5.60;;
8737;SDS011;4405;49.272;8.590;2024-01-16T06:28:37;9.63;;;5.87;;
8737;SDS011;4405;49.272;8.590;2024-01-16T06:31:03;7.77;;;5.63;;
8737;SDS011;4405;49.272;8.590;2024-01-16T06:33:29;9.17;;;5.80;;
8737;SDS011;4405;49.272;8.590;2024-01-16T06:35:56;7.37;;;5.63;;
8737;SDS011;4405;49.272;8.590;2024-01-16T06:38:22;8.23;;;5.27;;
8737;SDS011;4405;49.272;8.590;2024-01-16T06:40:49;7.40;;;5.20;;
8737;SDS011;4405;49.272;8.590;2024-01-16T06:43:16;10.47;;;5.80;;
8737;SDS011;4405;49.272;8.590;2024-01-16T06:45:42;10.30;;;6.17;;
8737;SDS011;4405;49.272;8.590;2024-01-16T06:48:09;9.83;;;5.60;;
8737;SDS011;4405;49.272;8.590;2024-01-16T06:50:35;8.70;;;5.80;;
8737;SDS011;4405;49.272;8.590;2024-01-16T06:53:02;10.90;;;5.87;;
8737;SDS011;4405;49.272;8.590;2024-01-16T06:55:28;8.67;;;6.10;;
8737;SDS011;4405;49.272;8.590;2024-01-16T06:57:56;8.27;;;5.80;;
8737;SDS011;4405;49.272;8.590;2024-01-16T07:00:22;9.83;;;6.07;;
8737;SDS011;4405;49.272;8.590;2024-01-16T07:02:51;8.60;;;5.47;;
8737;SDS011;4405;49.272;8.590;2024-01-16T07:05:17;7.50;;;5.67;;
8737;SDS011;4405;49.272;8.590;2024-01-16T07:07:43;8.83;;;5.83;;
8737;SDS011;4405;49.272;8.590;2024-01-16T07:10:10;10.83;;;6.23;;
8737;SDS011;4405;49.272;8.590;2024-01-16T07:12:38;10.20;;;7.20;;
8737;SDS011;4405;49.272;8.590;2024-01-16T07:15:06;10.83;;;6.47;;
8737;SDS011;4405;49.272;8.590;2024-01-16T07:17:33;11.37;;;6.40;;
8737;SDS011;4405;49.272;8.590;2024-01-16T07:19:59;8.17;;;5.80;;
8737;SDS011;4405;49.272;8.590;2024-01-16T07:22:25;7.27;;;5.40;;
8737;SDS011;4405;49.272;8.590;2024-01-16T07:24:52;7.63;;;5.33;;
8737;SDS011;4405;49.272;8.590;2024-01-16T07:27:18;10.50;;;6.30;;
8737;SDS011;4405;49.272;8.590;2024-01-16T07:29:44;7.40;;;5.60;;
8737;SDS011;4405;49.272;8.590;2024-01-16T07:32:12;10.10;;;6.40;;
8737;SDS011;4405;49.272;8.590;2024-01-16T07:34:38;8.13;;;6.00;;
8737;SDS011;4405;49.272;8.590;2024-01-16T07:37:04;13.13;;;6.23;;
8737;SDS011;4405;49.272;8.590;2024-01-16T07:39:31;9.13;;;6.37;;
8737;SDS011;4405;49.272;8.590;2024-01-16T07:41:57;9.37;;;6.83;;
8737;SDS011;4405;49.272;8.590;2024-01-16T07:44:23;11.40;;;6.10;;
8737;SDS011;4405;49.272;8.590;2024-01-16T07:46:49;9.83;;;5.93;;
8737;SDS011;4405;49.272;8.590;2024-01-16T07:49:17;13.37;;;6.73;;
8737;SDS011;4405;49.272;8.590;2024-01-16T07:51:43;15.23;;;7.00;;
8737;SDS011;4405;49.272;8.590;2024-01-16T07:54:09;8.73;;;6.50;;
8737;SDS011;4405;49.272;8.590;2024-01-16T07:56:38;10.27;;;6.40;;
8737;SDS011;4405;49.272;8.590;2024-01-16T07:59:04;10.33;;;6.10;;
8737;SDS011;4405;49.272;8.590;2024-01-16T08:01:30;10.53;;;6.20;;
8737;SDS011;4405;49.272;8.590;2024-01-16T08:03:57;11.73;;;6.37;;
8737;SDS011;4405;49.272;8.590;2024-01-16T08:06:25;11.97;;;7.37;;
8737;SDS011;4405;49.272;8.590;2024-01-16T08:08:51;13.33;;;6.70;;
8737;SDS011;4405;49.272;8.590;2024-01-16T08:11:18;11.30;;;6.97;;
8737;SDS011;4405;49.272;8.590;2024-01-16T08:13:44;9.60;;;6.57;;
8737;SDS011;4405;49.272;8.590;2024-01-16T08:16:10;10.80;;;6.87;;
8737;SDS011;4405;49.272;8.590;2024-01-16T08:18:36;12.30;;;7.13;;
8737;SDS011;4405;49.272;8.590;2024-01-16T08:21:03;10.53;;;6.47;;
8737;SDS011;4405;49.272;8.590;2024-01-16T08:23:30;10.50;;;7.00;;
8737;SDS011;4405;49.272;8.590;2024-01-16T08:25:57;10.43;;;6.70;;
8737;SDS011;4405;49.272;8.590;2024-01-16T08:28:23;10.43;;;7.13;;
8737;SDS011;4405;49.272;8.590;2024-01-16T08:30:51;10.00;;;6.53;;
8737;SDS011;4405;49.272;8.590;2024-01-16T08:33:17;12.57;;;7.47;;
8737;SDS011;4405;49.272;8.590;2024-01-16T08:35:43;14.47;;;8.10;;
8737;SDS011;4405;49.272;8.590;2024-01-16T08:38:09;16.17;;;8.77;;
8737;SDS011;4405;49.272;8.590;2024-01-16T08:40:37;12.87;;;8.60;;
8737;SDS011;4405;49.272;8.590;2024-01-16T08:43:04;12.87;;;8.13;;
8737;SDS011;4405;49.272;8.590;2024-01-16T08:45:30;9.93;;;6.57;;
8737;SDS011;4405;49.272;8.590;2024-01-16T08:47:57;10.13;;;7.27;;
8737;SDS011;4405;49.272;8.590;2024-01-16T08:50:24;11.63;;;7.60;;
8737;SDS011;4405;49.272;8.590;2024-01-16T08:52:51;10.77;;;6.97;;
8737;SDS011;4405;49.272;8.590;2024-01-16T08:55:17;13.27;;;6.90;;
8737;SDS011;4405;49.272;8.590;2024-01-16T08:57:44;9.50;;;7.30;;
8737;SDS011;4405;49.272;8.590;2024-01-16T09:00:11;11.60;;;7.47;;
8737;SDS011;4405;49.272;8.590;2024-01-16T09:02:37;10.50;;;7.07;;
8737;SDS011;4405;49.272;8.590;2024-01-16T09:05:04;11.00;;;6.87;;
8737;SDS011;4405;49.272;8.590;2024-01-16T09:07:30;10.53;;;6.80;;
8737;SDS011;4405;49.272;8.590;2024-01-16T09:09:57;9.67;;;7.17;;
8737;SDS011;4405;49.272;8.590;2024-01-16T09:12:23;10.53;;;7.37;;
8737;SDS011;4405;49.272;8.590;2024-01-16T09:14:52;11.57;;;7.00;;
8737;SDS011;4405;49.272;8.590;2024-01-16T09:17:18;9.57;;;6.80;;
8737;SDS011;4405;49.272;8.590;2024-01-16T09:19:45;12.77;;;7.43;;
8737;SDS011;4405;49.272;8.590;2024-01-16T09:22:12;15.87;;;9.50;;
8737;SDS011;4405;49.272;8.590;2024-01-16T09:24:40;11.60;;;7.23;;
8737;SDS011;4405;49.272;8.590;2024-01-16T09:27:06;11.40;;;7.77;;
8737;SDS011;4405;49.272;8.590;2024-01-16T09:29:34;11.10;;;7.07;;
8737;SDS011;4405;49.272;8.590;2024-01-16T09:32:02;9.70;;;7.07;;
8737;SDS011;4405;49.272;8.590;2024-01-16T09:34:29;10.37;;;6.53;;
8737;SDS011;4405;49.272;8.590;2024-01-16T09:36:55;9.60;;;6.73;;
8737;SDS011;4405;49.272;8.590;2024-01-16T09:39:24;12.47;;;7.30;;
8737;SDS011;4405;49.272;8.590;2024-01-16T09:41:50;11.30;;;7.77;;
8737;SDS011;4405;49.272;8.590;2024-01-16T09:44:16;10.27;;;7.03;;
8737;SDS011;4405;49.272;8.590;2024-01-16T09:46:43;11.23;;;7.47;;
8737;SDS011;4405;49.272;8.590;2024-01-16T09:49:12;10.07;;;6.80;;
8737;SDS011;4405;49.272;8.590;2024-01-16T09:51:41;14.30;;;7.10;;
8737;SDS011;4405;49.272;8.590;2024-01-16T09:54:08;12.00;;;7.50;;
8737;SDS011;4405;49.272;8.590;2024-01-16T09:56:35;12.13;;;7.90;;
8737;SDS011;4405;49.272;8.590;2024-01-16T09:59:05;12.13;;;8.30;;
8737;SDS011;4405;49.272;8.590;2024-01-16T10:01:32;13.93;;;7.73;;
8737;SDS011;4405;49.272;8.590;2024-01-16T10:03:59;12.30;;;7.47;;
8737;SDS011;4405;49.272;8.590;2024-01-16T10:06:27;9.90;;;6.73;;
8737;SDS011;4405;49.272;8.590;2024-01-16T10:08:55;12.33;;;7.73;;
8737;SDS011;4405;49.272;8.590;2024-01-16T10:11:22;11.97;;;8.30;;
8737;SDS011;4405;49.272;8.590;2024-01-16T10:13:48;12.17;;;7.13;;
8737;SDS011;4405;49.272;8.590;2024-01-16T10:16:14;9.53;;;7.03;;
8737;SDS011;4405;49.272;8.590;2024-01-16T10:18:41;10.20;;;7.33;;
8737;SDS011;4405;49.272;8.590;2024-01-16T10:21:19;11.77;;;7.27;;
8737;SDS011;4405;49.272;8.590;2024-01-16T10:23:47;11.43;;;7.20;;
8737;SDS011;4405;49.272;8.590;2024-01-16T10:26:13;11.50;;;7.33;;
8737;SDS011;4405;49.272;8.590;2024-01-16T10:28:40;12.37;;;7.30;;
8737;SDS011;4405;49.272;8.590;2024-01-16T10:31:07;11.23;;;7.47;;
8737;SDS011;4405;49.272;8.590;2024-01-16T10:33:35;10.93;;;6.97;;
8737;SDS011;4405;49.272;8.590;2024-01-16T10:36:09;11.10;;;6.73;;
8737;SDS011;4405;49.272;8.590;2024-01-16T10:38:35;9.90;;;6.93;;
8737;SDS011;4405;49.272;8.590;2024-01-16T10:41:11;12.93;;;7.13;;
8737;SDS011;4405;49.272;8.590;2024-01-16T10:43:38;9.80;;;6.83;;
8737;SDS011;4405;49.272;8.590;2024-01-16T10:46:07;8.83;;;6.73;;
8737;SDS011;4405;49.272;8.590;2024-01-16T10:48:34;12.20;;;7.27;;
8737;SDS011;4405;49.272;8.590;2024-01-16T10:51:01;10.37;;;6.77;;
8737;SDS011;4405;49.272;8.590;2024-01-16T10:53:28;11.17;;;7.10;;
8737;SDS011;4405;49.272;8.590;2024-01-16T10:55:58;11.60;;;7.03;;
8737;SDS011;4405;49.272;8.590;2024-01-16T10:58:27;13.80;;;7.13;;
8737;SDS011;4405;49.272;8.590;2024-01-16T11:00:56;9.60;;;7.20;;
8737;SDS011;4405;49.272;8.590;2024-01-16T11:03:24;11.70;;;7.20;;
8737;SDS011;4405;49.272;8.590;2024-01-16T11:05:51;11.77;;;7.17;;
8737;SDS011;4405;49.272;8.590;2024-01-16T11:08:18;12.60;;;7.70;;
8737;SDS011;4405;49.272;8.590;2024-01-16T11:10:45;16.13;;;8.57;;
8737;SDS011;4405;49.272;8.590;2024-01-16T11:13:13;10.20;;;7.27;;
8737;SDS011;4405;49.272;8.590;2024-01-16T11:15:42;12.03;;;7.83;;
8737;SDS011;4405;49.272;8.590;2024-01-16T11:18:09;12.57;;;8.73;;
8737;SDS011;4405;49.272;8.590;2024-01-16T11:20:36;13.87;;;8.77;;
8737;SDS011;4405;49.272;8.590;2024-01-16T11:23:03;10.93;;;7.27;;
8737;SDS011;4405;49.272;8.590;2024-01-16T11:25:33;11.97;;;6.97;;
8737;SDS011;4405;49.272;8.590;2024-01-16T11:28:07;10.70;;;6.80;;
8737;SDS011;4405;49.272;8.590;2024-01-16T11:30:33;11.40;;;7.00;;
8737;SDS011;4405;49.272;8.590;2024-01-16T11:33:01;8.73;;;6.50;;
8737;SDS011;4405;49.272;8.590;2024-01-16T11:35:33;8.20;;;6.37;;
8737;SDS011;4405;49.272;8.590;2024-01-16T11:38:06;12.77;;;7.83;;
8737;SDS011;4405;49.272;8.590;2024-01-16T11:40:33;9.70;;;6.63;;
8737;SDS011;4405;49.272;8.590;2024-01-16T11:42:59;12.90;;;7.00;;
8737;SDS011;4405;49.272;8.590;2024-01-16T11:45:49;8.00;;;5.87;;
8737;SDS011;4405;49.272;8.590;2024-01-16T11:48:20;11.67;;;6.67;;
8737;SDS011;4405;49.272;8.590;2024-01-16T11:50:46;11.77;;;6.53;;
8737;SDS011;4405;49.272;8.590;2024-01-16T11:53:31;8.03;;;5.93;;
8737;SDS011;4405;49.272;8.590;2024-01-16T11:56:02;9.40;;;6.40;;
8737;SDS011;4405;49.272;8.590;2024-01-16T11:58:41;10.40;;;6.13;;
8737;SDS011;4405;49.272;8.590;2024-01-16T12:01:09;9.60;;;5.70;;
8737;SDS011;4405;49.272;8.590;2024-01-16T12:03:38;10.77;;;6.10;;
8737;SDS011;4405;49.272;8.590;2024-01-16T12:06:04;9.03;;;5.67;;
8737;SDS011;4405;49.272;8.590;2024-01-16T12:08:31;7.67;;;5.80;;
8737;SDS011;4405;49.272;8.590;2024-01-16T12:10:57;12.67;;;8.00;;
8737;SDS011;4405;49.272;8.590;2024-01-16T12:13:24;7.10;;;5.77;;
8737;SDS011;4405;49.272;8.590;2024-01-16T12:15:58;10.33;;;5.70;;
8737;SDS011;4405;49.272;8.590;2024-01-16T12:18:25;9.03;;;5.30;;
8737;SDS011;4405;49.272;8.590;2024-01-16T12:20:52;9.27;;;5.20;;
8737;SDS011;4405;49.272;8.590;2024-01-16T12:23:18;12.00;;;5.30;;
8737;SDS011;4405;49.272;8.590;2024-01-16T12:25:47;6.60;;;4.93;;
8737;SDS011;4405;49.272;8.590;2024-01-16T12:28:13;7.33;;;5.23;;
8737;SDS011;4405;49.272;8.590;2024-01-16T12:30:46;9.03;;;4.97;;
8737;SDS011;4405;49.272;8.590;2024-01-16T12:33:14;7.43;;;4.43;;
8737;SDS011;4405;49.272;8.590;2024-01-16T12:35:42;7.20;;;4.80;;
8737;SDS011;4405;49.272;8.590;2024-01-16T12:38:11;6.47;;;4.73;;
8737;SDS011;4405;49.272;8.590;2024-01-16T12:40:39;6.17;;;4.80;;
8737;SDS011;4405;49.272;8.590;2024-01-16T12:43:06;7.47;;;5.10;;
8737;SDS011;4405;49.272;8.590;2024-01-16T12:45:34;7.33;;;4.77;;
8737;SDS011;4405;49.272;8.590;2024-01-16T12:48:00;7.10;;;4.83;;
8737;SDS011;4405;49.272;8.590;2024-01-16T12:50:29;5.57;;;4.53;;
8737;SDS011;4405;49.272;8.590;2024-01-16T12:53:02;6.97;;;4.90;;
8737;SDS011;4405;49.272;8.590;2024-01-16T12:55:29;6.97;;;4.60;;
8737;SDS011;4405;49.272;8.590;2024-01-16T12:58:15;5.57;;;4.40;;
8737;SDS011;4405;49.272;8.590;2024-01-16T13:00:41;6.57;;;4.30;;
8737;SDS011;4405;49.272;8.590;2024-01-16T13:03:07;6.50;;;4.60;;
8737;SDS011;4405;49.272;8.590;2024-01-16T13:05:40;5.73;;;4.43;;
8737;SDS011;4405;49.272;8.590;2024-01-16T13:08:06;5.17;;;4.20;;
8737;SDS011;4405;49.272;8.590;2024-01-16T13:10:35;7.30;;;4.97;;
8737;SDS011;4405;49.272;8.590;2024-01-16T13:13:13;5.63;;;5.00;;
8737;SDS011;4405;49.272;8.590;2024-01-16T13:15:39;5.97;;;4.80;;
8737;SDS011;4405;49.272;8.590;2024-01-16T13:18:06;7.40;;;4.90;;
8737;SDS011;4405;49.272;8.590;2024-01-16T13:20:32;5.43;;;4.10;;
8737;SDS011;4405;49.272;8.590;2024-01-16T13:22:59;6.80;;;4.47;;
8737;SDS011;4405;49.272;8.590;2024-01-16T13:25:25;5.17;;;4.53;;
8737;SDS011;4405;49.272;8.590;2024-01-16T13:27:53;5.33;;;4.00;;
8737;SDS011;4405;49.272;8.590;2024-01-16T13:30:19;3.60;;;3.30;;
8737;SDS011;4405;49.272;8.590;2024-01-16T13:32:45;6.70;;;3.50;;
8737;SDS011;4405;49.272;8.590;2024-01-16T13:35:12;6.33;;;4.00;;
8737;SDS011;4405;49.272;8.590;2024-01-16T13:37:38;4.10;;;3.70;;
8737;SDS011;4405;49.272;8.590;2024-01-16T13:40:06;4.00;;;3.60;;
8737;SDS011;4405;49.272;8.590;2024-01-16T13:42:35;3.97;;;3.37;;
8737;SDS011;4405;49.272;8.590;2024-01-16T13:45:02;3.70;;;3.40;;
8737;SDS011;4405;49.272;8.590;2024-01-16T13:47:29;3.30;;;3.00;;
8737;SDS011;4405;49.272;8.590;2024-01-16T13:49:56;3.63;;;3.30;;
8737;SDS011;4405;49.272;8.590;2024-01-16T13:52:22;3.47;;;3.17;;
8737;SDS011;4405;49.272;8.590;2024-01-16T13:54:48;5.80;;;3.00;;
8737;SDS011;4405;49.272;8.590;2024-01-16T13:57:14;3.97;;;3.33;;
8737;SDS011;4405;49.272;8.590;2024-01-16T13:59:41;5.57;;;3.33;;
8737;SDS011;4405;49.272;8.590;2024-01-16T14:02:08;3.30;;;2.97;;
8737;SDS011;4405;49.272;8.590;2024-01-16T14:04:35;4.53;;;3.00;;
8737;SDS011;4405;49.272;8.590;2024-01-16T14:07:01;2.90;;;2.43;;
8737;SDS011;4405;49.272;8.590;2024-01-16T14:09:28;4.27;;;2.63;;
8737;SDS011;4405;49.272;8.590;2024-01-16T14:11:54;3.17;;;2.50;;
8737;SDS011;4405;49.272;8.590;2024-01-16T14:14:21;4.73;;;2.70;;
8737;SDS011;4405;49.272;8.590;2024-01-16T14:16:48;3.00;;;2.70;;
8737;SDS011;4405;49.272;8.590;2024-01-16T14:19:17;4.23;;;2.87;;
8737;SDS011;4405;49.272;8.590;2024-01-16T14:21:43;3.83;;;2.73;;
8737;SDS011;4405;49.272;8.590;2024-01-16T14:24:09;3.97;;;3.23;;
8737;SDS011;4405;49.272;8.590;2024-01-16T14:26:35;5.77;;;3.00;;
8737;SDS011;4405;49.272;8.590;2024-01-16T14:29:02;3.40;;;2.87;;
8737;SDS011;4405;49.272;8.590;2024-01-16T14:31:28;3.90;;;3.00;;
8737;SDS011;4405;49.272;8.590;2024-01-16T14:33:54;4.90;;;2.87;;
8737;SDS011;4405;49.272;8.590;2024-01-16T14:36:22;4.77;;;3.00;;
8737;SDS011;4405;49.272;8.590;2024-01-16T14:38:49;4.93;;;3.17;;
8737;SDS011;4405;49.272;8.590;2024-01-16T14:41:16;4.83;;;3.23;;
8737;SDS011;4405;49.272;8.590;2024-01-16T14:43:42;3.60;;;3.03;;
8737;SDS011;4405;49.272;8.590;2024-01-16T14:46:08;3.30;;;1.87;;
8737;SDS011;4405;49.272;8.590;2024-01-16T14:48:35;4.00;;;1.47;;
8737;SDS011;4405;49.272;8.590;2024-01-16T14:51:02;2.93;;;1.60;;
8737;SDS011;4405;49.272;8.590;2024-01-16T14:53:29;3.60;;;2.17;;
8737;SDS011;4405;49.272;8.590;2024-01-16T14:55:56;2.97;;;1.87;;
8737;SDS011;4405;49.272;8.590;2024-01-16T14:58:22;2.67;;;1.93;;
8737;SDS011;4405;49.272;8.590;2024-01-16T15:00:49;1.80;;;1.70;;
8737;SDS011;4405;49.272;8.590;2024-01-16T15:03:15;3.20;;;2.20;;
8737;SDS011;4405;49.272;8.590;2024-01-16T15:05:44;4.10;;;2.10;;
8737;SDS011;4405;49.272;8.590;2024-01-16T15:08:11;5.97;;;2.10;;
8737;SDS011;4405;49.272;8.590;2024-01-16T15:10:39;3.77;;;1.90;;